createdAt,value
2023-02-11T00:03:21.291Z,86.90
2023-02-11T00:08:23.079Z,86.90
2023-02-11T00:13:25.227Z,86.60
2023-02-11T00:18:27.781Z,86.50
2023-02-11T00:23:29.664Z,86.30
2023-02-11T00:28:31.631Z,86.20
2023-02-11T00:33:33.484Z,86.20
2023-02-11T00:38:35.382Z,86.10
2023-02-11T00:43:37.915Z,86.40
2023-02-11T00:48:40.386Z,86.80
2023-02-11T00:53:42.389Z,87.00
2023-02-11T00:58:44.183Z,87.00
2023-02-11T01:03:46.137Z,87.00
2023-02-11T01:08:47.954Z,87.40
2023-02-11T01:13:50.137Z,87.90
2023-02-11T01:18:52.040Z,87.60
2023-02-11T01:23:53.954Z,87.70
2023-02-11T01:28:56.180Z,87.60
2023-02-11T01:33:57.969Z,87.80
2023-02-11T01:39:00.116Z,87.90
2023-02-11T01:44:24.653Z,88.00
2023-02-11T01:49:36.387Z,88.40
2023-02-11T01:55:00.404Z,88.90
2023-02-11T02:00:11.281Z,88.80
2023-02-11T02:05:26.168Z,89.00
2023-02-11T02:10:28.866Z,88.70
2023-02-11T02:15:34.139Z,88.90
2023-02-11T02:21:13.439Z,89.10
2023-02-11T02:26:27.256Z,89.20
2023-02-11T02:31:28.987Z,88.90
2023-02-11T02:36:43.022Z,89.20
2023-02-11T02:41:45.219Z,89.00
2023-02-11T02:46:47.088Z,89.00
2023-02-11T02:52:07.717Z,89.80
2023-02-11T02:57:24.642Z,90.30
2023-02-11T03:02:37.066Z,90.60
2023-02-11T03:07:49.049Z,90.90
2023-02-11T03:12:51.872Z,91.10
2023-02-11T03:17:57.864Z,91.20
2023-02-11T03:23:16.421Z,91.40
2023-02-11T03:28:30.016Z,91.60
2023-02-11T03:33:44.941Z,91.80
2023-02-11T03:38:53.711Z,91.80
2023-02-11T03:43:57.236Z,91.80
2023-02-11T03:49:03.618Z,91.70
2023-02-11T03:54:09.622Z,92.00
2023-02-11T03:59:11.487Z,91.90
2023-02-11T04:04:16.752Z,92.00
2023-02-11T04:09:18.629Z,92.00
2023-02-11T04:14:20.436Z,92.20
2023-02-11T04:19:22.229Z,92.20
2023-02-11T04:24:24.092Z,92.20
2023-02-11T04:29:25.940Z,92.20
2023-02-11T04:34:27.800Z,92.50
2023-02-11T04:39:29.691Z,92.10
2023-02-11T04:44:31.614Z,92.00
2023-02-11T04:49:33.465Z,92.10
2023-02-11T04:54:36.079Z,92.20
2023-02-11T04:59:37.936Z,92.30
2023-02-11T05:04:40.205Z,92.30
2023-02-11T05:09:42.010Z,92.30
2023-02-11T05:14:43.800Z,92.30
2023-02-11T05:19:45.591Z,92.40
2023-02-11T05:24:47.438Z,92.40
2023-02-11T05:29:49.516Z,92.50
2023-02-11T05:34:51.313Z,92.50
2023-02-11T05:39:53.100Z,92.50
2023-02-11T05:44:54.895Z,92.60
2023-02-11T05:49:56.721Z,92.70
2023-02-11T05:54:58.874Z,92.80
2023-02-11T06:00:00.685Z,93.00
2023-02-11T06:05:02.576Z,93.00
2023-02-11T06:10:04.765Z,93.00
2023-02-11T06:15:07.016Z,92.90
2023-02-11T06:20:10.695Z,93.00
2023-02-11T06:25:13.282Z,93.00
2023-02-11T06:30:15.307Z,93.00
2023-02-11T06:35:17.202Z,93.00
2023-02-11T06:40:19.124Z,92.80
2023-02-11T06:45:21.101Z,92.70
2023-02-11T06:50:22.897Z,92.50
2023-02-11T06:55:24.764Z,92.30
2023-02-11T07:00:26.890Z,92.10
2023-02-11T07:05:28.774Z,91.90
2023-02-11T07:10:30.592Z,91.60
2023-02-11T07:15:32.628Z,91.30
2023-02-11T07:20:34.424Z,91.00
2023-02-11T07:25:36.496Z,90.50
2023-02-11T07:30:38.336Z,90.30
2023-02-11T07:35:42.600Z,90.20
2023-02-11T07:40:44.515Z,89.80
2023-02-11T07:45:46.294Z,89.80
2023-02-11T07:50:48.091Z,89.60
2023-02-11T07:55:50.542Z,89.40
2023-02-11T08:00:52.561Z,88.80
2023-02-11T08:05:54.479Z,89.00
2023-02-11T08:10:56.309Z,88.90
2023-02-11T08:15:58.141Z,88.50
2023-02-11T08:21:08.850Z,88.30
2023-02-11T08:26:21.859Z,87.70
2023-02-11T08:31:29.652Z,87.00
2023-02-11T08:36:36.597Z,86.80
2023-02-11T08:41:38.412Z,86.80
2023-02-11T08:46:40.378Z,86.60
2023-02-11T08:51:42.574Z,85.20
2023-02-11T08:56:44.564Z,85.00
2023-02-11T09:01:47.775Z,84.20
2023-02-11T09:06:49.693Z,84.20
2023-02-11T09:11:51.492Z,84.10
2023-02-11T09:16:53.718Z,83.90
2023-02-11T09:21:55.595Z,83.00
2023-02-11T09:26:57.383Z,82.60
2023-02-11T09:31:59.275Z,82.40
2023-02-11T09:37:01.460Z,82.50
2023-02-11T09:42:09.099Z,81.50
2023-02-11T09:47:33.198Z,81.00
2023-02-11T09:52:52.565Z,80.70
2023-02-11T09:57:55.726Z,80.70
2023-02-11T10:03:35.209Z,80.30
2023-02-11T10:09:04.833Z,79.70
2023-02-11T10:14:09.679Z,79.70
2023-02-11T10:19:21.150Z,79.50
2023-02-11T10:24:23.338Z,79.00
2023-02-11T10:29:39.026Z,78.50
2023-02-11T10:34:41.692Z,78.30
2023-02-11T10:39:43.661Z,77.60
2023-02-11T10:44:59.828Z,77.50
2023-02-11T10:50:03.687Z,77.30
2023-02-11T10:55:22.879Z,77.50
2023-02-11T11:00:24.854Z,77.60
2023-02-11T11:05:38.131Z,76.80
2023-02-11T11:10:45.881Z,76.40
2023-02-11T11:16:07.807Z,77.30
2023-02-11T11:21:34.612Z,77.90
2023-02-11T11:26:44.856Z,76.40
2023-02-11T11:31:59.400Z,77.00
2023-02-11T11:37:10.860Z,76.50
2023-02-11T11:42:27.576Z,76.20
2023-02-11T11:47:38.132Z,76.30
2023-02-11T11:52:48.082Z,76.20
2023-02-11T11:57:50.322Z,76.40
2023-02-11T12:03:04.209Z,76.20
2023-02-11T12:08:36.319Z,75.00
2023-02-11T12:13:52.369Z,74.20
2023-02-11T12:19:13.953Z,73.40
2023-02-11T12:24:49.824Z,72.70
2023-02-11T12:30:40.523Z,72.90
2023-02-11T12:36:10.049Z,73.40
2023-02-11T12:41:56.450Z,73.90
2023-02-11T12:47:03.044Z,73.60
2023-02-11T12:52:13.823Z,74.10
2023-02-11T12:57:22.653Z,73.70
2023-02-11T13:02:27.404Z,73.90
2023-02-11T13:07:39.898Z,73.90
2023-02-11T13:13:04.893Z,74.40
2023-02-11T13:18:37.045Z,74.20
2023-02-11T13:23:46.207Z,74.20
2023-02-11T13:29:12.706Z,73.20
2023-02-11T13:34:46.618Z,73.20
2023-02-11T13:40:01.828Z,73.80
2023-02-11T13:45:17.603Z,73.20
2023-02-11T13:50:29.249Z,72.30
2023-02-11T13:55:31.684Z,71.90
2023-02-11T14:00:41.817Z,72.50
2023-02-11T14:06:29.507Z,72.70
2023-02-11T14:11:35.203Z,73.70
2023-02-11T14:16:59.976Z,75.20
2023-02-11T14:22:11.868Z,74.90
2023-02-11T14:27:20.703Z,75.30
2023-02-11T14:32:45.883Z,76.10
2023-02-11T14:38:02.570Z,76.20
2023-02-11T14:43:14.262Z,76.40
2023-02-11T14:48:18.220Z,76.60
2023-02-11T14:53:25.070Z,77.00
2023-02-11T14:58:32.155Z,77.40
2023-02-11T15:03:36.794Z,77.80
2023-02-11T15:08:43.941Z,78.20
2023-02-11T15:13:49.806Z,78.70
2023-02-11T15:18:58.218Z,79.10
2023-02-11T15:24:01.451Z,79.20
2023-02-11T15:29:04.940Z,79.50
2023-02-11T15:34:08.967Z,79.70
2023-02-11T15:39:20.415Z,80.40
2023-02-11T15:44:30.324Z,80.60
2023-02-11T15:49:33.339Z,81.30
2023-02-11T15:54:35.171Z,81.40
2023-02-11T15:59:41.637Z,81.50
2023-02-11T16:05:05.406Z,82.00
2023-02-11T16:10:29.820Z,82.20
2023-02-11T16:15:34.541Z,82.50
2023-02-11T16:20:36.697Z,83.00
2023-02-11T16:25:42.303Z,83.40
2023-02-11T16:30:44.410Z,83.60
2023-02-11T16:35:47.688Z,83.80
2023-02-11T16:40:50.122Z,84.10
2023-02-11T16:45:52.512Z,84.30
2023-02-11T16:50:55.109Z,84.50
2023-02-11T16:55:57.429Z,85.00
2023-02-11T17:01:08.951Z,85.30
2023-02-11T17:06:11.806Z,85.60
2023-02-11T17:11:16.763Z,86.40
2023-02-11T17:16:21.626Z,86.70
2023-02-11T17:21:27.587Z,87.20
2023-02-11T17:26:30.703Z,87.60
2023-02-11T17:31:33.206Z,87.70
2023-02-11T17:36:35.328Z,87.90
2023-02-11T17:41:38.207Z,88.40
2023-02-11T17:46:40.152Z,88.90
2023-02-11T17:51:42.058Z,89.00
2023-02-11T17:56:44.780Z,89.20
2023-02-11T18:01:47.290Z,89.30
2023-02-11T18:06:50.264Z,89.30
2023-02-11T18:11:52.580Z,89.70
2023-02-11T18:16:54.506Z,89.60
2023-02-11T18:21:59.712Z,89.80
2023-02-11T18:27:02.912Z,90.00
2023-02-11T18:32:05.078Z,90.10
2023-02-11T18:37:07.013Z,90.10
2023-02-11T18:42:09.909Z,90.20
2023-02-11T18:47:11.775Z,90.20
2023-02-11T18:52:13.730Z,90.10
2023-02-11T18:57:15.656Z,89.90
2023-02-11T19:02:18.060Z,89.80
2023-02-11T19:07:19.958Z,89.60
2023-02-11T19:12:21.860Z,89.70
2023-02-11T19:17:23.878Z,89.50
2023-02-11T19:22:25.834Z,89.20
2023-02-11T19:27:27.692Z,89.40
2023-02-11T19:32:29.971Z,89.70
2023-02-11T19:37:31.898Z,90.00
2023-02-11T19:42:33.762Z,90.00
2023-02-11T19:47:35.913Z,90.10
2023-02-11T19:52:40.676Z,90.10
2023-02-11T19:57:42.735Z,90.20
2023-02-11T20:02:44.781Z,90.30
2023-02-11T20:07:46.617Z,90.40
2023-02-11T20:12:48.461Z,90.60
2023-02-11T20:17:51.038Z,90.70
2023-02-11T20:22:53.019Z,90.80
2023-02-11T20:27:55.017Z,91.00
2023-02-11T20:32:58.510Z,91.00
2023-02-11T20:38:00.831Z,91.10
2023-02-11T20:43:02.700Z,91.10
2023-02-11T20:48:04.595Z,91.20
2023-02-11T20:53:06.651Z,91.30
2023-02-11T20:58:09.271Z,91.40
2023-02-11T21:03:11.317Z,91.40
2023-02-11T21:08:13.212Z,91.40
2023-02-11T21:13:15.061Z,91.40
2023-02-11T21:18:17.072Z,91.60
2023-02-11T21:23:18.988Z,91.70
2023-02-11T21:28:26.081Z,91.80
2023-02-11T21:33:29.009Z,91.90
2023-02-11T21:38:31.203Z,92.10
2023-02-11T21:43:33.520Z,92.20
2023-02-11T21:48:35.503Z,92.40
2023-02-11T21:53:37.557Z,92.40
2023-02-11T21:58:39.525Z,92.50
2023-02-11T22:03:42.087Z,92.60
2023-02-11T22:08:43.987Z,92.70
2023-02-11T22:13:46.090Z,92.80
2023-02-11T22:18:48.218Z,93.20
2023-02-11T22:23:51.135Z,92.90
2023-02-11T22:28:53.753Z,93.10
2023-02-11T22:33:56.214Z,93.20
2023-02-11T22:39:03.898Z,93.30
2023-02-11T22:44:05.883Z,93.40
2023-02-11T22:49:07.787Z,93.50
2023-02-11T22:54:15.332Z,93.80
2023-02-11T22:59:17.727Z,93.90
2023-02-11T23:04:20.950Z,94.10
2023-02-11T23:09:22.913Z,94.30
2023-02-11T23:14:24.930Z,94.50
2023-02-11T23:19:27.270Z,94.60
2023-02-11T23:24:29.181Z,94.80
2023-02-11T23:29:31.016Z,94.90
2023-02-11T23:34:32.833Z,95.10
2023-02-11T23:39:34.836Z,95.30
2023-02-11T23:44:36.691Z,95.60
2023-02-11T23:49:38.580Z,95.80
2023-02-11T23:54:40.466Z,96.10
2023-02-11T23:59:43.208Z,96.20
